createdAt,value
2016-11-17T00:00:44.890Z,967.55
2016-11-17T00:01:44.851Z,967.53
2016-11-17T00:02:44.814Z,967.52
2016-11-17T00:03:44.775Z,967.56
2016-11-17T00:04:44.739Z,967.47
2016-11-17T00:05:44.701Z,967.46
2016-11-17T00:06:44.661Z,967.44
2016-11-17T00:07:44.624Z,967.46
2016-11-17T00:08:44.586Z,967.42
2016-11-17T00:09:44.548Z,967.38
2016-11-17T00:10:44.511Z,967.36
2016-11-17T00:11:44.474Z,967.37
2016-11-17T00:12:44.436Z,967.35
2016-11-17T00:13:44.398Z,967.31
2016-11-17T00:14:44.360Z,967.31
2016-11-17T00:15:44.324Z,967.34
2016-11-17T00:16:44.284Z,967.31
2016-11-17T00:17:44.246Z,967.32
2016-11-17T00:18:44.208Z,967.25
2016-11-17T00:19:44.170Z,967.28
2016-11-17T00:20:44.134Z,967.23
2016-11-17T00:21:44.097Z,967.24
2016-11-17T00:22:44.057Z,967.22
2016-11-17T00:23:44.020Z,967.19
2016-11-17T00:24:43.982Z,967.2
2016-11-17T00:25:43.943Z,967.27
2016-11-17T00:26:43.905Z,967.29
2016-11-17T00:27:43.869Z,967.26
2016-11-17T00:28:43.830Z,967.29
2016-11-17T00:29:43.792Z,967.27
2016-11-17T00:30:43.754Z,967.31
2016-11-17T00:31:43.716Z,967.32
2016-11-17T00:32:43.678Z,967.37
2016-11-17T00:33:43.645Z,967.36
2016-11-17T00:34:43.602Z,967.35
2016-11-17T00:35:43.566Z,967.31
2016-11-17T00:36:43.526Z,967.34
2016-11-17T00:37:43.490Z,967.42
2016-11-17T00:38:43.452Z,967.38
2016-11-17T00:39:43.414Z,967.35
2016-11-17T00:40:43.376Z,967.36
2016-11-17T00:41:43.339Z,967.31
2016-11-17T00:42:43.298Z,967.28
2016-11-17T00:43:43.262Z,967.26
2016-11-17T00:44:43.225Z,967.25
2016-11-17T00:45:43.186Z,967.27
2016-11-17T00:46:43.149Z,967.29
2016-11-17T00:47:43.111Z,967.33
2016-11-17T00:48:43.073Z,967.31
2016-11-17T00:49:43.036Z,967.32
2016-11-17T00:50:42.996Z,967.34
2016-11-17T00:51:42.960Z,967.25
2016-11-17T00:52:42.922Z,967.22
2016-11-17T00:53:42.884Z,967.25
2016-11-17T00:54:42.846Z,967.23
2016-11-17T00:55:42.806Z,967.26
2016-11-17T00:56:42.769Z,967.26
2016-11-17T00:57:42.731Z,967.29
2016-11-17T00:58:42.696Z,967.24
2016-11-17T00:59:42.657Z,967.26
2016-11-17T01:00:42.619Z,967.24
2016-11-17T01:01:42.579Z,967.22
2016-11-17T01:02:42.542Z,967.26
2016-11-17T01:03:42.505Z,967.29
2016-11-17T01:04:42.466Z,967.24
2016-11-17T01:05:42.430Z,967.22
2016-11-17T01:06:42.393Z,967.28
2016-11-17T01:07:42.353Z,967.27
2016-11-17T01:08:42.316Z,967.24
2016-11-17T01:09:42.279Z,967.24
2016-11-17T01:10:42.239Z,967.17
2016-11-17T01:11:42.203Z,967.08
2016-11-17T01:12:42.163Z,967.09
2016-11-17T01:13:42.126Z,967.06
2016-11-17T01:14:42.089Z,967.04
2016-11-17T01:15:42.053Z,967.04
2016-11-17T01:16:42.012Z,967.01
2016-11-17T01:17:41.973Z,967.02
2016-11-17T01:18:41.935Z,967.06
2016-11-17T01:19:41.899Z,967.09
2016-11-17T01:20:41.861Z,967.09
2016-11-17T01:21:41.824Z,967.13
2016-11-17T01:22:41.785Z,967.09
2016-11-17T01:23:41.748Z,967.02
2016-11-17T01:24:41.708Z,967.08
2016-11-17T01:25:41.671Z,967.05
2016-11-17T01:26:41.634Z,967.08
2016-11-17T01:27:41.595Z,967.05
2016-11-17T01:28:41.556Z,967.02
2016-11-17T01:29:41.520Z,967.04
2016-11-17T01:30:41.480Z,967.07
2016-11-17T01:31:41.441Z,967.05
2016-11-17T01:32:41.404Z,967.07
2016-11-17T01:33:41.367Z,967.06
2016-11-17T01:34:41.329Z,967.1
2016-11-17T01:35:41.291Z,967.07
2016-11-17T01:36:41.252Z,967.06
2016-11-17T01:37:41.215Z,967.09
2016-11-17T01:38:41.179Z,967.11
2016-11-17T01:39:41.139Z,967.14
2016-11-17T01:40:41.100Z,967.07
2016-11-17T01:41:41.063Z,967.06
2016-11-17T01:42:41.025Z,967.07
2016-11-17T01:43:40.986Z,967.06
2016-11-17T01:44:40.949Z,967.07
2016-11-17T01:45:40.910Z,967.08
2016-11-17T01:46:40.874Z,967.07
2016-11-17T01:47:40.833Z,967.06
2016-11-17T01:48:40.796Z,967.02
2016-11-17T01:49:40.757Z,967
2016-11-17T01:50:40.720Z,967
2016-11-17T01:51:40.681Z,967.04
2016-11-17T01:52:40.644Z,967.04
2016-11-17T01:53:40.605Z,967.01
2016-11-17T01:54:40.568Z,967.06
2016-11-17T01:55:40.531Z,967.07
2016-11-17T01:56:40.492Z,967.02
2016-11-17T01:57:40.453Z,967.04
2016-11-17T01:58:40.416Z,967.04
2016-11-17T01:59:40.378Z,967.03
2016-11-17T02:00:40.338Z,967.11
2016-11-17T02:01:40.300Z,967.11
2016-11-17T02:02:40.264Z,967.07
2016-11-17T02:03:40.225Z,967.05
2016-11-17T02:04:40.187Z,967.06
2016-11-17T02:05:40.149Z,967.05
2016-11-17T02:06:40.112Z,966.99
2016-11-17T02:07:40.073Z,966.99
2016-11-17T02:08:40.034Z,966.98
2016-11-17T02:09:39.998Z,966.96
2016-11-17T02:10:39.963Z,966.92
2016-11-17T02:11:39.922Z,966.94
2016-11-17T02:12:39.885Z,966.94
2016-11-17T02:13:39.844Z,966.89
2016-11-17T02:14:39.809Z,966.88
2016-11-17T02:15:39.769Z,966.87
2016-11-17T02:16:39.730Z,966.89
2016-11-17T02:17:39.693Z,966.89
2016-11-17T02:18:39.655Z,966.84
2016-11-17T02:19:39.616Z,966.82
2016-11-17T02:20:39.578Z,966.88
2016-11-17T02:21:39.540Z,966.84
2016-11-17T02:22:39.502Z,966.87
2016-11-17T02:23:39.464Z,966.83
2016-11-17T02:24:39.426Z,966.82
2016-11-17T02:25:39.387Z,966.81
2016-11-17T02:26:39.350Z,966.78
2016-11-17T02:27:39.310Z,966.73
2016-11-17T02:28:39.273Z,966.67
2016-11-17T02:29:39.234Z,966.67
2016-11-17T02:30:39.198Z,966.65
2016-11-17T02:31:39.161Z,966.71
2016-11-17T02:32:39.123Z,966.7
2016-11-17T02:33:39.081Z,966.69
2016-11-17T02:34:39.043Z,966.69
2016-11-17T02:35:39.005Z,966.7
2016-11-17T02:36:38.968Z,966.64
2016-11-17T02:37:38.930Z,966.66
2016-11-17T02:38:38.894Z,966.68
2016-11-17T02:39:38.854Z,966.61
2016-11-17T02:40:38.816Z,966.63
2016-11-17T02:41:38.778Z,966.61
2016-11-17T02:42:38.741Z,966.58
2016-11-17T02:43:38.704Z,966.59
2016-11-17T02:44:38.665Z,966.59
2016-11-17T02:45:38.629Z,966.56
2016-11-17T02:46:38.590Z,966.6
2016-11-17T02:47:38.552Z,966.56
2016-11-17T02:48:38.518Z,966.5
2016-11-17T02:49:38.478Z,966.5
2016-11-17T02:50:38.438Z,966.48
2016-11-17T02:51:38.399Z,966.4
2016-11-17T02:52:38.362Z,966.41
2016-11-17T02:53:38.324Z,966.41
2016-11-17T02:54:38.284Z,966.35
2016-11-17T02:55:38.247Z,966.33
2016-11-17T02:56:38.212Z,966.35
2016-11-17T02:57:38.172Z,966.31
2016-11-17T02:58:38.132Z,966.31
2016-11-17T02:59:38.095Z,966.35
2016-11-17T03:00:38.058Z,966.4
2016-11-17T03:01:38.019Z,966.4
2016-11-17T03:02:37.982Z,966.4
2016-11-17T03:03:37.943Z,966.45
2016-11-17T03:04:37.907Z,966.44
2016-11-17T03:05:37.867Z,966.42
2016-11-17T03:06:37.829Z,966.43
2016-11-17T03:07:37.792Z,966.42
2016-11-17T03:08:37.753Z,966.44
2016-11-17T03:09:37.715Z,966.45
2016-11-17T03:10:37.677Z,966.46
2016-11-17T03:11:37.640Z,966.41
2016-11-17T03:12:37.605Z,966.47
2016-11-17T03:13:37.565Z,966.43
2016-11-17T03:14:37.525Z,966.39
2016-11-17T03:15:37.488Z,966.41
2016-11-17T03:16:37.451Z,966.4
2016-11-17T03:17:37.411Z,966.4
2016-11-17T03:18:37.372Z,966.43
2016-11-17T03:19:37.337Z,966.41
2016-11-17T03:20:37.297Z,966.38
2016-11-17T03:21:37.259Z,966.39
2016-11-17T03:22:37.222Z,966.43
2016-11-17T03:23:37.184Z,966.38
2016-11-17T03:24:37.147Z,966.37
2016-11-17T03:25:37.107Z,966.34
2016-11-17T03:26:37.071Z,966.33
2016-11-17T03:27:37.032Z,966.32
2016-11-17T03:28:36.997Z,966.29
2016-11-17T03:29:36.957Z,966.3
2016-11-17T03:30:36.918Z,966.28
2016-11-17T03:31:36.881Z,966.31
2016-11-17T03:32:36.843Z,966.3
2016-11-17T03:33:36.805Z,966.35
2016-11-17T03:34:36.765Z,966.27
2016-11-17T03:35:36.727Z,966.28
2016-11-17T03:36:36.690Z,966.28
2016-11-17T03:37:36.654Z,966.28
2016-11-17T03:38:36.614Z,966.26
2016-11-17T03:39:36.576Z,966.29
2016-11-17T03:40:36.538Z,966.24
2016-11-17T03:41:36.501Z,966.21
2016-11-17T03:42:36.464Z,966.16
2016-11-17T03:43:36.424Z,966.12
2016-11-17T03:44:36.389Z,966.09
2016-11-17T03:45:36.353Z,966.08
2016-11-17T03:46:36.315Z,966.1
2016-11-17T03:47:36.274Z,966.07
2016-11-17T03:48:36.236Z,966.07
2016-11-17T03:49:36.197Z,966.06
2016-11-17T03:50:36.161Z,966.04
2016-11-17T03:51:36.121Z,965.98
2016-11-17T03:52:36.086Z,965.96
2016-11-17T03:53:36.047Z,965.99
2016-11-17T03:54:36.008Z,965.93
2016-11-17T03:55:35.970Z,965.97
2016-11-17T03:56:35.934Z,965.94
2016-11-17T03:57:35.895Z,965.89
2016-11-17T03:58:35.857Z,965.95
2016-11-17T03:59:35.819Z,965.98
2016-11-17T04:00:35.779Z,965.98
2016-11-17T04:01:35.743Z,965.94
2016-11-17T04:02:35.706Z,965.96
2016-11-17T04:03:35.667Z,965.94
2016-11-17T04:04:35.629Z,965.85
2016-11-17T04:05:35.589Z,965.86
2016-11-17T04:06:35.553Z,965.87
2016-11-17T04:07:35.516Z,965.88
2016-11-17T04:08:35.479Z,965.88
2016-11-17T04:09:35.440Z,965.85
2016-11-17T04:10:35.401Z,965.81
2016-11-17T04:11:35.363Z,965.74
2016-11-17T04:12:35.325Z,965.78
2016-11-17T04:13:35.288Z,965.74
2016-11-17T04:14:35.250Z,965.82
2016-11-17T04:15:35.212Z,965.78
2016-11-17T04:16:35.175Z,965.73
2016-11-17T04:17:35.136Z,965.76
2016-11-17T04:18:35.097Z,965.75
2016-11-17T04:19:35.062Z,965.72
2016-11-17T04:20:35.024Z,965.72
2016-11-17T04:21:34.984Z,965.69
2016-11-17T04:22:34.947Z,965.73
2016-11-17T04:23:34.908Z,965.71
2016-11-17T04:24:34.872Z,965.72
2016-11-17T04:25:34.833Z,965.73
2016-11-17T04:26:34.794Z,965.73
2016-11-17T04:27:34.757Z,965.73
2016-11-17T04:28:34.720Z,965.72
2016-11-17T04:29:34.682Z,965.62
2016-11-17T04:30:34.642Z,965.58
2016-11-17T04:31:34.607Z,965.67
2016-11-17T04:32:34.569Z,965.66
2016-11-17T04:33:34.529Z,965.62
2016-11-17T04:34:34.491Z,965.65
2016-11-17T04:35:34.454Z,965.68
2016-11-17T04:36:34.417Z,965.67
2016-11-17T04:37:34.378Z,965.72
2016-11-17T04:38:34.344Z,965.73
2016-11-17T04:39:34.303Z,965.73
2016-11-17T04:40:34.264Z,965.76
2016-11-17T04:41:34.226Z,965.72
2016-11-17T04:42:34.188Z,965.67
2016-11-17T04:43:34.152Z,965.69
2016-11-17T04:44:34.113Z,965.64
2016-11-17T04:45:34.075Z,965.62
2016-11-17T04:46:34.038Z,965.61
2016-11-17T04:47:33.999Z,965.62
2016-11-17T04:48:33.961Z,965.6
2016-11-17T04:49:33.924Z,965.6
2016-11-17T04:50:33.886Z,965.64
2016-11-17T04:51:33.847Z,965.59
2016-11-17T04:52:33.810Z,965.56
2016-11-17T04:53:33.773Z,965.54
2016-11-17T04:54:33.734Z,965.55
2016-11-17T04:55:33.696Z,965.55
2016-11-17T04:56:33.658Z,965.55
2016-11-17T04:57:33.620Z,965.64
2016-11-17T04:58:33.584Z,965.65
2016-11-17T04:59:33.544Z,965.68
2016-11-17T05:00:33.505Z,965.71
2016-11-17T05:01:33.469Z,965.74
2016-11-17T05:02:33.430Z,965.76
2016-11-17T05:03:33.392Z,965.8
2016-11-17T05:04:33.354Z,965.75
2016-11-17T05:05:33.317Z,965.78
2016-11-17T05:06:33.278Z,965.73
2016-11-17T05:07:33.240Z,965.76
2016-11-17T05:08:33.205Z,965.76
2016-11-17T05:09:33.165Z,965.78
2016-11-17T05:10:33.127Z,965.74
2016-11-17T05:11:33.090Z,965.76
2016-11-17T05:12:33.053Z,965.7
2016-11-17T05:13:33.013Z,965.68
2016-11-17T05:14:32.975Z,965.7
2016-11-17T05:15:32.938Z,965.78
2016-11-17T05:16:32.900Z,965.75
2016-11-17T05:17:32.862Z,965.75
2016-11-17T05:18:32.825Z,965.72
2016-11-17T05:19:32.786Z,965.65
2016-11-17T05:20:32.748Z,965.64
2016-11-17T05:21:32.709Z,965.63
2016-11-17T05:22:32.672Z,965.56
2016-11-17T05:23:32.635Z,965.55
2016-11-17T05:24:32.597Z,965.49
2016-11-17T05:25:32.558Z,965.54
2016-11-17T05:26:32.523Z,965.52
2016-11-17T05:27:32.483Z,965.5
2016-11-17T05:28:32.444Z,965.45
2016-11-17T05:29:32.409Z,965.39
2016-11-17T05:30:32.368Z,965.37
2016-11-17T05:31:32.331Z,965.35
2016-11-17T05:32:32.294Z,965.35
2016-11-17T05:33:32.256Z,965.33
2016-11-17T05:34:32.218Z,965.3
2016-11-17T05:35:32.180Z,965.3
2016-11-17T05:36:32.141Z,965.32
2016-11-17T05:37:32.103Z,965.36
2016-11-17T05:38:32.066Z,965.37
2016-11-17T05:39:32.027Z,965.37
2016-11-17T05:40:31.990Z,965.41
2016-11-17T05:41:31.954Z,965.47
2016-11-17T05:42:31.917Z,965.52
2016-11-17T05:43:31.875Z,965.57
2016-11-17T05:44:31.838Z,965.58
2016-11-17T05:45:31.800Z,965.59
2016-11-17T05:46:31.761Z,965.59
2016-11-17T05:47:31.724Z,965.58
2016-11-17T05:48:31.686Z,965.56
2016-11-17T05:49:31.649Z,965.58
2016-11-17T05:50:31.611Z,965.55
2016-11-17T05:51:31.572Z,965.58
2016-11-17T05:52:31.534Z,965.58
2016-11-17T05:53:31.496Z,965.58
2016-11-17T05:54:31.459Z,965.61
2016-11-17T05:55:31.421Z,965.57
2016-11-17T05:56:31.382Z,965.58
2016-11-17T05:57:31.344Z,965.58
2016-11-17T05:58:31.305Z,965.61
2016-11-17T05:59:31.269Z,965.61
2016-11-17T06:00:31.232Z,965.63
2016-11-17T06:01:31.194Z,965.61
2016-11-17T06:02:31.156Z,965.63
2016-11-17T06:03:31.118Z,965.59
2016-11-17T06:04:31.079Z,965.62
2016-11-17T06:05:31.043Z,965.65
2016-11-17T06:06:31.003Z,965.65
2016-11-17T06:07:30.965Z,965.62
2016-11-17T06:08:30.927Z,965.6
2016-11-17T06:09:30.892Z,965.56
2016-11-17T06:10:30.851Z,965.53
2016-11-17T06:11:30.815Z,965.55
2016-11-17T06:12:30.775Z,965.51
2016-11-17T06:13:30.737Z,965.55
2016-11-17T06:14:30.698Z,965.51
2016-11-17T06:15:30.660Z,965.55
2016-11-17T06:16:30.623Z,965.57
2016-11-17T06:17:30.584Z,965.52
2016-11-17T06:18:30.547Z,965.55
2016-11-17T06:19:30.508Z,965.59
2016-11-17T06:20:30.469Z,965.58
2016-11-17T06:21:30.433Z,965.57
2016-11-17T06:22:30.394Z,965.57
2016-11-17T06:23:30.356Z,965.54
2016-11-17T06:24:30.320Z,965.58
2016-11-17T06:25:30.280Z,965.57
2016-11-17T06:26:30.241Z,965.61
2016-11-17T06:27:30.204Z,965.63
2016-11-17T06:28:30.166Z,965.59
2016-11-17T06:29:30.131Z,965.6
2016-11-17T06:30:30.091Z,965.55
2016-11-17T06:31:30.053Z,965.57
2016-11-17T06:32:30.014Z,965.53
2016-11-17T06:33:29.977Z,965.5
2016-11-17T06:34:29.939Z,965.52
2016-11-17T06:35:29.902Z,965.51
2016-11-17T06:36:29.862Z,965.43
2016-11-17T06:37:29.824Z,965.43
2016-11-17T06:38:29.784Z,965.45
2016-11-17T06:39:29.749Z,965.45
2016-11-17T06:40:29.710Z,965.43
2016-11-17T06:41:29.671Z,965.42
2016-11-17T06:42:29.633Z,965.43
2016-11-17T06:43:29.597Z,965.38
2016-11-17T06:44:29.558Z,965.4
2016-11-17T06:45:29.519Z,965.38
2016-11-17T06:46:29.482Z,965.36
2016-11-17T06:47:29.445Z,965.42
2016-11-17T06:48:29.401Z,965.37
2016-11-17T06:49:29.368Z,965.41
2016-11-17T06:50:29.331Z,965.38
2016-11-17T06:51:29.294Z,965.4
2016-11-17T06:52:29.255Z,965.38
2016-11-17T06:53:29.218Z,965.39
2016-11-17T06:54:29.178Z,965.37
2016-11-17T06:55:29.143Z,965.42
2016-11-17T06:56:29.102Z,965.46
2016-11-17T06:57:29.064Z,965.5
2016-11-17T06:58:29.027Z,965.5
2016-11-17T06:59:28.987Z,965.52
2016-11-17T07:00:28.950Z,965.51
2016-11-17T07:01:28.911Z,965.57
2016-11-17T07:02:28.874Z,965.57
2016-11-17T07:03:28.836Z,965.61
2016-11-17T07:04:28.798Z,965.62
2016-11-17T07:05:28.759Z,965.6
2016-11-17T07:06:28.721Z,965.66
2016-11-17T07:07:28.684Z,965.67
2016-11-17T07:08:28.645Z,965.63
2016-11-17T07:09:28.607Z,965.65
2016-11-17T07:10:28.570Z,965.63
2016-11-17T07:11:28.532Z,965.66
2016-11-17T07:12:28.493Z,965.65
2016-11-17T07:13:28.456Z,965.68
2016-11-17T07:14:28.417Z,965.71
2016-11-17T07:15:28.381Z,965.7
2016-11-17T07:16:28.343Z,965.68
2016-11-17T07:17:28.304Z,965.71
2016-11-17T07:18:28.266Z,965.73
2016-11-17T07:19:28.229Z,965.67
2016-11-17T07:20:28.191Z,965.72
2016-11-17T07:21:28.152Z,965.71
2016-11-17T07:22:28.115Z,965.73
2016-11-17T07:23:28.077Z,965.7
2016-11-17T07:24:28.040Z,965.73
2016-11-17T07:25:28.001Z,965.72
2016-11-17T07:26:27.965Z,965.72
2016-11-17T07:27:27.926Z,965.67
2016-11-17T07:28:27.890Z,965.64
2016-11-17T07:29:27.851Z,965.64
2016-11-17T07:30:27.813Z,965.58
2016-11-17T07:31:27.777Z,965.53
2016-11-17T07:32:27.736Z,965.55
2016-11-17T07:33:27.700Z,965.56
2016-11-17T07:34:27.666Z,965.53
2016-11-17T07:35:27.624Z,965.57
2016-11-17T07:36:27.589Z,965.59
2016-11-17T07:37:27.547Z,965.63
2016-11-17T07:38:27.511Z,965.64
2016-11-17T07:39:27.472Z,965.58
2016-11-17T07:40:27.435Z,965.58
2016-11-17T07:41:27.399Z,965.62
2016-11-17T07:42:27.360Z,965.61
2016-11-17T07:43:27.323Z,965.61
2016-11-17T07:44:27.287Z,965.63
2016-11-17T07:45:27.246Z,965.66
2016-11-17T07:46:27.208Z,965.67
2016-11-17T07:47:27.171Z,965.62
2016-11-17T07:48:27.134Z,965.68
2016-11-17T07:49:27.096Z,965.7
2016-11-17T07:50:27.061Z,965.69
2016-11-17T07:51:27.020Z,965.73
2016-11-17T07:52:26.986Z,965.73
2016-11-17T07:53:26.945Z,965.77
2016-11-17T07:54:26.907Z,965.76
2016-11-17T07:55:26.870Z,965.81
2016-11-17T07:56:26.833Z,965.76
2016-11-17T07:57:26.794Z,965.75
2016-11-17T07:58:26.759Z,965.77
2016-11-17T07:59:26.720Z,965.74
2016-11-17T08:00:26.683Z,965.77
2016-11-17T08:01:26.645Z,965.72
2016-11-17T08:02:26.607Z,965.67
2016-11-17T08:03:26.569Z,965.69
2016-11-17T08:04:26.533Z,965.7
2016-11-17T08:05:26.494Z,965.67
2016-11-17T08:06:26.468Z,965.62
2016-11-17T08:07:26.430Z,965.58
2016-11-17T08:08:26.384Z,965.59
2016-11-17T08:09:26.344Z,965.56
2016-11-17T08:10:26.308Z,965.59
2016-11-17T08:11:26.270Z,965.58
2016-11-17T08:12:26.233Z,965.56
2016-11-17T08:13:26.197Z,965.55
2016-11-17T08:14:26.160Z,965.56
2016-11-17T08:15:26.122Z,965.51
2016-11-17T08:16:26.085Z,965.52
2016-11-17T08:17:26.048Z,965.53
2016-11-17T08:18:26.011Z,965.59
2016-11-17T08:19:25.972Z,965.61
2016-11-17T08:20:25.936Z,965.6
2016-11-17T08:21:25.899Z,965.62
2016-11-17T08:22:25.863Z,965.6
2016-11-17T08:23:25.824Z,965.6
2016-11-17T08:24:25.787Z,965.55
2016-11-17T08:25:25.751Z,965.56
2016-11-17T08:26:25.714Z,965.54
2016-11-17T08:27:25.677Z,965.56
2016-11-17T08:28:25.640Z,965.55
2016-11-17T08:29:25.607Z,965.53
2016-11-17T08:30:25.566Z,965.5
2016-11-17T08:31:25.530Z,965.54
2016-11-17T08:32:25.492Z,965.52
2016-11-17T08:33:25.458Z,965.52
2016-11-17T08:34:25.421Z,965.51
2016-11-17T08:35:25.383Z,965.63
2016-11-17T08:36:25.347Z,965.58
2016-11-17T08:37:25.310Z,965.58
2016-11-17T08:38:25.272Z,965.54
2016-11-17T08:39:25.237Z,965.54
2016-11-17T08:40:25.200Z,965.51
2016-11-17T08:41:25.165Z,965.52
2016-11-17T08:42:25.126Z,965.54
2016-11-17T08:43:25.092Z,965.52
2016-11-17T08:44:25.053Z,965.51
2016-11-17T08:45:25.015Z,965.5
2016-11-17T08:46:24.978Z,965.55
2016-11-17T08:47:24.943Z,965.57
2016-11-17T08:48:24.906Z,965.54
2016-11-17T08:49:24.872Z,965.43
2016-11-17T08:50:24.832Z,965.46
2016-11-17T08:51:24.803Z,965.44
2016-11-17T08:52:24.759Z,965.44
2016-11-17T08:53:24.723Z,965.41
2016-11-17T08:54:24.685Z,965.39
2016-11-17T08:55:24.648Z,965.39
2016-11-17T08:56:24.611Z,965.42
2016-11-17T08:57:24.575Z,965.37
2016-11-17T08:58:24.539Z,965.39
2016-11-17T08:59:24.503Z,965.42
2016-11-17T09:00:24.465Z,965.44
2016-11-17T09:01:24.427Z,965.43
2016-11-17T09:02:24.392Z,965.43
2016-11-17T09:03:24.356Z,965.45
2016-11-17T09:04:24.319Z,965.39
2016-11-17T09:05:24.282Z,965.4
2016-11-17T09:06:24.246Z,965.44
2016-11-17T09:07:24.210Z,965.4
2016-11-17T09:08:24.173Z,965.4
2016-11-17T09:09:24.136Z,965.39
2016-11-17T09:10:24.100Z,965.41
2016-11-17T09:11:24.065Z,965.44
2016-11-17T09:12:24.027Z,965.41
2016-11-17T09:13:23.990Z,965.4
2016-11-17T09:14:23.959Z,965.36
2016-11-17T09:15:23.919Z,965.41
2016-11-17T09:16:23.881Z,965.4
2016-11-17T09:17:23.846Z,965.35
2016-11-17T09:18:23.807Z,965.32
2016-11-17T09:19:23.772Z,965.32
2016-11-17T09:20:23.736Z,965.29
2016-11-17T09:21:23.700Z,965.38
2016-11-17T09:22:23.669Z,965.35
2016-11-17T09:23:23.626Z,965.37
2016-11-17T09:24:23.590Z,965.34
2016-11-17T09:25:23.552Z,965.41
2016-11-17T09:26:23.517Z,965.42
2016-11-17T09:27:23.481Z,965.39
2016-11-17T09:28:23.445Z,965.38
2016-11-17T09:29:23.407Z,965.39
2016-11-17T09:30:23.372Z,965.42
2016-11-17T09:31:23.336Z,965.43
2016-11-17T09:32:23.299Z,965.4
2016-11-17T09:33:23.262Z,965.39
2016-11-17T09:34:23.226Z,965.36
2016-11-17T09:35:23.191Z,965.38
2016-11-17T09:36:23.153Z,965.39
2016-11-17T09:37:23.116Z,965.41
2016-11-17T09:38:23.080Z,965.36
2016-11-17T09:39:23.045Z,965.41
2016-11-17T09:40:23.006Z,965.33
2016-11-17T09:41:22.970Z,965.36
2016-11-17T09:42:22.934Z,965.38
2016-11-17T09:43:22.899Z,965.3
2016-11-17T09:44:22.861Z,965.41
2016-11-17T09:45:22.825Z,965.36
2016-11-17T09:46:22.788Z,965.41
2016-11-17T09:47:22.752Z,965.41
2016-11-17T09:48:22.714Z,965.41
2016-11-17T09:49:22.681Z,965.43
2016-11-17T09:50:22.643Z,965.44
2016-11-17T09:51:22.604Z,965.48
2016-11-17T09:52:22.568Z,965.46
2016-11-17T09:53:22.532Z,965.45
2016-11-17T09:54:22.496Z,965.46
2016-11-17T09:55:22.459Z,965.42
2016-11-17T09:56:22.422Z,965.45
2016-11-17T09:57:22.386Z,965.41
2016-11-17T09:58:22.348Z,965.46
2016-11-17T09:59:22.312Z,965.49
2016-11-17T10:00:22.275Z,965.38
2016-11-17T10:01:22.241Z,965.37
2016-11-17T10:02:22.202Z,965.38
2016-11-17T10:03:22.618Z,965.35
2016-11-17T10:04:22.130Z,965.36
2016-11-17T10:05:22.094Z,965.32
2016-11-17T10:06:22.065Z,965.31
2016-11-17T10:07:22.020Z,965.33
2016-11-17T10:08:21.984Z,965.35
2016-11-17T10:09:21.946Z,965.36
2016-11-17T10:10:21.910Z,965.41
2016-11-17T10:11:21.875Z,965.36
2016-11-17T10:12:21.838Z,965.31
2016-11-17T10:13:21.801Z,965.35
2016-11-17T10:14:21.765Z,965.35
2016-11-17T10:15:21.729Z,965.35
2016-11-17T10:16:21.692Z,965.27
2016-11-17T10:17:21.657Z,965.28
2016-11-17T10:18:21.618Z,965.32
2016-11-17T10:19:21.585Z,965.31
2016-11-17T10:20:21.546Z,965.3
2016-11-17T10:21:21.508Z,965.32
2016-11-17T10:22:21.472Z,965.31
2016-11-17T10:23:21.437Z,965.29
2016-11-17T10:24:21.400Z,965.26
2016-11-17T10:25:21.362Z,965.24
2016-11-17T10:26:21.326Z,965.24
2016-11-17T10:27:21.291Z,965.18
2016-11-17T10:28:21.255Z,965.11
2016-11-17T10:29:21.216Z,965.1
2016-11-17T10:30:21.181Z,965.16
2016-11-17T10:31:21.143Z,965.16
2016-11-17T10:32:21.106Z,965.16
2016-11-17T10:33:21.069Z,965.16
2016-11-17T10:34:21.034Z,965.15
2016-11-17T10:35:20.997Z,965.14
2016-11-17T10:36:20.960Z,965.14
2016-11-17T10:37:20.927Z,965.1
2016-11-17T10:38:20.888Z,965.12
2016-11-17T10:39:20.853Z,965.12
2016-11-17T10:40:20.816Z,965.09
2016-11-17T10:41:20.779Z,965.19
2016-11-17T10:42:20.747Z,965.2
2016-11-17T10:43:20.707Z,965.18
2016-11-17T10:44:20.670Z,965.24
2016-11-17T10:45:20.636Z,965.19
2016-11-17T10:46:20.601Z,965.21
2016-11-17T10:47:20.561Z,965.19
2016-11-17T10:48:20.525Z,965.11
2016-11-17T10:49:20.492Z,965.11
2016-11-17T10:50:20.453Z,965.07
2016-11-17T10:51:20.417Z,965.06
2016-11-17T10:52:20.381Z,965.09
2016-11-17T10:53:20.344Z,965.13
2016-11-17T10:54:20.308Z,965.15
2016-11-17T10:55:20.276Z,965.19
2016-11-17T10:56:20.235Z,965.15
2016-11-17T10:57:20.200Z,965.09
2016-11-17T10:58:20.164Z,965.09
2016-11-17T10:59:20.128Z,965.12
2016-11-17T11:00:20.094Z,965.11
2016-11-17T11:01:20.057Z,965.07
2016-11-17T11:02:20.022Z,965.09
2016-11-17T11:03:19.986Z,965.1
2016-11-17T11:04:19.950Z,965.01
2016-11-17T11:05:19.914Z,965.05
2016-11-17T11:06:19.878Z,965.11
2016-11-17T11:07:19.842Z,965.07
2016-11-17T11:08:19.807Z,965.13
2016-11-17T11:09:19.771Z,965.08
2016-11-17T11:10:19.736Z,965.07
2016-11-17T11:11:19.700Z,965.01
2016-11-17T11:12:19.664Z,965.06
2016-11-17T11:13:19.629Z,965.04
2016-11-17T11:14:19.592Z,965.02
2016-11-17T11:15:19.558Z,965.04
2016-11-17T11:16:19.520Z,964.97
2016-11-17T11:17:19.486Z,964.98
2016-11-17T11:18:19.450Z,965.01
2016-11-17T11:19:19.414Z,964.98
2016-11-17T11:20:19.378Z,964.99
2016-11-17T11:21:19.343Z,965.03
2016-11-17T11:22:19.309Z,964.98
2016-11-17T11:23:19.272Z,964.95
2016-11-17T11:24:19.236Z,964.95
2016-11-17T11:25:19.201Z,964.93
2016-11-17T11:26:19.166Z,964.92
2016-11-17T11:27:19.131Z,964.9
2016-11-17T11:28:19.096Z,964.91
2016-11-17T11:29:19.060Z,964.95
2016-11-17T11:30:19.022Z,964.85
2016-11-17T11:31:18.989Z,964.84
2016-11-17T11:32:18.955Z,964.84
2016-11-17T11:33:18.917Z,964.82
2016-11-17T11:34:18.883Z,964.78
2016-11-17T11:35:18.848Z,964.84
2016-11-17T11:36:18.813Z,964.78
2016-11-17T11:37:18.778Z,964.86
2016-11-17T11:38:18.741Z,964.84
2016-11-17T11:39:18.706Z,964.81
2016-11-17T11:40:18.673Z,964.86
2016-11-17T11:41:18.635Z,964.81
2016-11-17T11:42:18.601Z,964.85
2016-11-17T11:43:18.566Z,964.85
2016-11-17T11:44:18.530Z,964.81
2016-11-17T11:45:18.495Z,964.79
2016-11-17T11:46:18.460Z,964.79
2016-11-17T11:47:18.428Z,964.83
2016-11-17T11:48:18.394Z,964.84
2016-11-17T11:49:18.355Z,964.83
2016-11-17T11:50:18.320Z,964.81
2016-11-17T11:51:18.286Z,964.84
2016-11-17T11:52:18.249Z,964.87
2016-11-17T11:53:18.213Z,964.89
2016-11-17T11:54:18.180Z,964.9
2016-11-17T11:55:18.144Z,964.85
2016-11-17T11:56:18.109Z,964.84
2016-11-17T11:57:18.075Z,964.84
2016-11-17T11:58:18.040Z,964.8
2016-11-17T11:59:18.005Z,964.82
2016-11-17T12:00:17.969Z,964.8
2016-11-17T12:01:17.935Z,964.79
2016-11-17T12:02:17.900Z,964.77
2016-11-17T12:03:17.865Z,964.78
2016-11-17T12:04:17.831Z,964.75
2016-11-17T12:05:17.797Z,964.78
2016-11-17T12:06:17.764Z,964.77
2016-11-17T12:07:17.726Z,964.76
2016-11-17T12:08:17.690Z,964.72
2016-11-17T12:09:17.656Z,964.7
2016-11-17T12:10:17.620Z,964.7
2016-11-17T12:11:17.585Z,964.69
2016-11-17T12:12:17.552Z,964.66
2016-11-17T12:13:17.516Z,964.68
2016-11-17T12:14:17.484Z,964.69
2016-11-17T12:15:17.447Z,964.65
2016-11-17T12:16:17.417Z,964.65
2016-11-17T12:17:17.377Z,964.6
2016-11-17T12:18:17.343Z,964.6
2016-11-17T12:19:17.309Z,964.65
2016-11-17T12:20:17.275Z,964.57
2016-11-17T12:21:17.239Z,964.57
2016-11-17T12:22:17.204Z,964.58
2016-11-17T12:23:17.169Z,964.59
2016-11-17T12:24:17.136Z,964.56
2016-11-17T12:25:17.099Z,964.54
2016-11-17T12:26:17.065Z,964.46
2016-11-17T12:27:17.030Z,964.48
2016-11-17T12:28:16.995Z,964.44
2016-11-17T12:29:16.960Z,964.44
2016-11-17T12:30:16.925Z,964.39